Terminal Aerodrome Forecast
Issued by NWS

Home | Current Version | Previous Version | Text Only | Print | Product List | Glossary On
Versions: 1 2 3 4 5 6 7 8 9 10 11 12 13 14 15 16
685
FTUS42 KTAE 181628 AAB
TAFABY
TAF AMD
KABY 181628Z 1816/1912 23005KT 5SM BR OVC007
     FM181700 28007KT P6SM BKN040
     FM190200 00000KT P6SM SCT040 BKN250
     FM190800 00000KT 1SM BR BKN002=

USA.gov is the U.S. government's official web portal to all federal, state and local government web resources and services.